Aeroporto :
LOGIN :

Iscrizione | Disclaimer

   EN    FR    IT 

 










Sommario :    VFR   VFR Marginale   IFR   IFR Intensivo   IFR Molto Intensivo
Visibilità : 
Base nubi : 
>= 8 km
>= 3000ft
5 / 8 km
1000 / 3000 ft
1500m / 5 km
500 / 1000 ft
800 / 1500m
200 / 500 ft
< 800m
< 200 ft
Simboli :   Temporali  Nebbia  Neve Forte  Precipitazioni Forti  Vento > 20 kt
SIGMETs :   Varie  Temporali  Ghiacco  Turbolenza  Onda orograficha  Ceneri Vulcaniche







- Altitudine del aeroporto : 574 ft
- Codice IATA : NDR


GMMW - Nador El Aroui

ULTIMO METAR :
  • 181900Z 01007KT CAVOK 23/15 Q1017 NOSIG

METARs OBSOLETI :
  • 181800Z 02007KT 350V070 CAVOK 24/15 Q1017 NOSIG
  • 181700Z 01004KT 330V070 CAVOK 24/15 Q1017 NOSIG

TAF TAF GMMW
Valido dal 18 a 18 ore il 20 a 00 ore UTC


181700Z 1818/1924 02010KT CAVOK
PROB40 1900/1908 VRB02KT 3000 BR
Nessun NOTAM noto per questo aeroporto.
1 SIGMET conosciuto per la FIR Casablanca (GMMM) :
 
Temporali affogati
GMMM SIGMET A1 VALID 181830/182030 GMMC
GMMM CASABLANCA FIR EMBD TS OBS WI N3356 W00437 - N3316 W00452 - N33 19 W00508 - N3401 W00455 TOP FL300 MOV NE INTSF=



MetMap, La meteo Aeronautica in un colpo d'occhio ! - Copyright ORBIFLY Dicembre 2007 - Disclaimer

ORBIFLY MET'MAP TEAM :

Programmazione e sviluppo : Alexandra Zaïnal
Concezione e sviluppo : Baudouin d'Aumeries
Co-Programmazione e sviluppo : Marc-Olivier Méhu
Supporto tecnico e logistico : Manuel Goepfert
Aiuto per la traduzione : Arnaldo La Scala

Contatto : metmap@orbifly.com




FONTI E CREDITI :

   NOAA